createdAt,value
2023-05-05T00:01:42.424Z,12.35
2023-05-05T00:06:43.897Z,12.34
2023-05-05T00:11:45.381Z,12.37
2023-05-05T00:16:47.287Z,12.39
2023-05-05T00:21:48.736Z,12.38
2023-05-05T00:26:51.115Z,12.23
2023-05-05T00:31:52.614Z,12.18
2023-05-05T00:36:54.047Z,12.11
2023-05-05T00:41:55.467Z,12.16
2023-05-05T00:46:56.951Z,12.18
2023-05-05T00:51:59.053Z,12.12
2023-05-05T00:57:02.184Z,12.05
2023-05-05T01:02:03.749Z,12.04
2023-05-05T01:07:22.214Z,11.95
2023-05-05T01:13:01.860Z,11.96
2023-05-05T01:18:25.119Z,11.96
2023-05-05T01:24:04.974Z,11.90
2023-05-05T01:29:38.481Z,11.74
2023-05-05T01:34:56.130Z,11.69
2023-05-05T01:40:06.202Z,11.77
2023-05-05T01:45:11.334Z,11.71
2023-05-05T01:50:15.985Z,11.62
2023-05-05T01:55:19.618Z,11.62
2023-05-05T02:00:22.648Z,11.57
2023-05-05T02:05:26.593Z,11.59
2023-05-05T02:10:29.206Z,11.49
2023-05-05T02:15:31.919Z,11.49
2023-05-05T02:20:33.907Z,11.45
2023-05-05T02:25:41.968Z,11.42
2023-05-05T02:30:43.968Z,11.35
2023-05-05T02:35:47.047Z,11.28
2023-05-05T02:40:51.138Z,11.21
2023-05-05T02:45:52.596Z,11.06
2023-05-05T02:50:54.020Z,10.91
2023-05-05T02:56:06.077Z,10.85
2023-05-05T03:01:16.958Z,10.89
2023-05-05T03:06:21.355Z,10.75
2023-05-05T03:11:29.121Z,10.69
2023-05-05T03:16:33.528Z,10.68
2023-05-05T03:21:35.368Z,10.67
2023-05-05T03:26:36.775Z,10.68
2023-05-05T03:31:38.332Z,10.63
2023-05-05T03:36:40.214Z,10.71
2023-05-05T03:41:41.638Z,10.70
2023-05-05T03:46:43.138Z,10.62
2023-05-05T03:51:44.556Z,10.62
2023-05-05T03:56:45.955Z,10.61
2023-05-05T04:01:48.966Z,10.53
2023-05-05T04:06:50.369Z,10.52
2023-05-05T04:11:52.045Z,10.60
2023-05-05T04:16:53.513Z,10.63
2023-05-05T04:21:54.965Z,10.62
2023-05-05T04:26:56.427Z,10.60
2023-05-05T04:31:57.868Z,10.58
2023-05-05T04:36:59.329Z,10.65
2023-05-05T04:42:00.738Z,10.69
2023-05-05T04:47:02.466Z,10.90
2023-05-05T04:52:03.938Z,11.32
2023-05-05T04:57:05.416Z,11.56
2023-05-05T05:02:06.945Z,11.89
2023-05-05T05:07:09.273Z,12.27
2023-05-05T05:12:10.786Z,12.40
2023-05-05T05:17:12.198Z,12.61
2023-05-05T05:22:13.654Z,12.87
2023-05-05T05:27:15.089Z,13.22
2023-05-05T05:32:16.741Z,13.42
2023-05-05T05:37:18.201Z,13.38
2023-05-05T05:42:19.611Z,13.51
2023-05-05T05:47:21.128Z,13.75
2023-05-05T05:52:22.544Z,13.70
2023-05-05T05:57:24.593Z,13.91
2023-05-05T06:02:27.226Z,14.07
2023-05-05T06:07:28.747Z,14.19
2023-05-05T06:12:30.205Z,14.54
2023-05-05T06:17:31.661Z,14.62
2023-05-05T06:22:33.066Z,14.57
2023-05-05T06:27:34.680Z,14.86
2023-05-05T06:32:36.191Z,15.05
2023-05-05T06:37:37.803Z,15.42
2023-05-05T06:42:39.226Z,15.74
2023-05-05T06:47:42.107Z,15.81
2023-05-05T06:52:43.545Z,16.16
2023-05-05T06:57:45.324Z,16.32
2023-05-05T07:02:47.608Z,16.52
2023-05-05T07:07:56.440Z,16.43
2023-05-05T07:12:58.142Z,16.57
2023-05-05T07:17:59.689Z,16.70
2023-05-05T07:23:01.341Z,16.88
2023-05-05T07:28:03.281Z,16.91
2023-05-05T07:33:04.796Z,17.17
2023-05-05T07:38:06.928Z,17.40
2023-05-05T07:43:09.721Z,17.63
2023-05-05T07:48:11.460Z,17.94
2023-05-05T07:53:14.979Z,18.18
2023-05-05T07:58:17.057Z,18.17
2023-05-05T08:03:20.650Z,18.21
2023-05-05T08:08:26.880Z,18.38
2023-05-05T08:13:30.186Z,18.93
2023-05-05T08:18:31.701Z,18.73
2023-05-05T08:23:34.710Z,18.99
2023-05-05T08:28:36.801Z,19.11
2023-05-05T08:33:38.253Z,19.46
2023-05-05T08:38:39.685Z,19.52
2023-05-05T08:43:43.781Z,19.36
2023-05-05T08:48:46.065Z,19.58
2023-05-05T08:54:00.908Z,19.81
2023-05-05T08:59:02.556Z,19.89
2023-05-05T09:04:04.722Z,19.98
2023-05-05T09:09:06.660Z,20.05
2023-05-05T09:14:08.104Z,20.12
2023-05-05T09:19:09.589Z,20.50
2023-05-05T09:24:12.587Z,20.58
2023-05-05T09:29:21.265Z,20.90
2023-05-05T09:34:22.622Z,20.94
2023-05-05T09:39:24.429Z,20.94
2023-05-05T09:44:37.273Z,20.82
2023-05-05T09:49:39.199Z,21.01
2023-05-05T09:54:41.303Z,21.17
2023-05-05T09:59:54.921Z,21.31
2023-05-05T10:05:12.730Z,21.32
2023-05-05T10:10:16.505Z,21.43
2023-05-05T10:15:18.559Z,21.25
2023-05-05T10:20:21.098Z,21.25
2023-05-05T10:25:32.908Z,21.37
2023-05-05T10:30:41.533Z,21.37
2023-05-05T10:35:44.871Z,21.46
2023-05-05T10:40:48.153Z,21.46
2023-05-05T10:45:50.130Z,21.68
2023-05-05T10:50:56.698Z,21.74
2023-05-05T10:56:25.298Z,21.73
2023-05-05T11:01:32.732Z,21.87
2023-05-05T11:06:34.221Z,21.90
2023-05-05T11:12:04.376Z,21.82
2023-05-05T11:17:34.205Z,21.87
2023-05-05T11:23:05.216Z,21.71
2023-05-05T11:28:13.604Z,21.78
2023-05-05T11:33:31.250Z,21.88
2023-05-05T11:38:46.932Z,21.77
2023-05-05T11:43:48.424Z,21.83
2023-05-05T11:48:53.786Z,21.94
2023-05-05T11:53:56.013Z,21.95
2023-05-05T11:59:19.078Z,21.76
2023-05-05T12:04:20.634Z,21.89
2023-05-05T12:09:23.875Z,22.01
2023-05-05T12:14:25.954Z,22.15
2023-05-05T12:19:33.152Z,22.23
2023-05-05T12:24:34.873Z,22.31
2023-05-05T12:29:36.917Z,22.10
2023-05-05T12:34:38.582Z,22.34
2023-05-05T12:39:40.004Z,22.23
2023-05-05T12:44:44.012Z,22.28
2023-05-05T12:49:46.229Z,22.45
2023-05-05T12:54:55.168Z,22.39
2023-05-05T12:59:57.935Z,22.34
2023-05-05T13:04:59.408Z,22.31
2023-05-05T13:10:10.880Z,22.39
2023-05-05T13:15:12.973Z,22.32
2023-05-05T13:20:14.487Z,22.26
2023-05-05T13:25:15.991Z,22.12
2023-05-05T13:30:17.433Z,22.07
2023-05-05T13:35:18.862Z,22.02
2023-05-05T13:40:20.299Z,22.27
2023-05-05T13:45:21.744Z,21.95
2023-05-05T13:50:24.039Z,22.27
2023-05-05T13:55:25.589Z,22.22
2023-05-05T14:00:27.809Z,22.31
2023-05-05T14:05:29.237Z,22.08
2023-05-05T14:10:31.074Z,22.03
2023-05-05T14:15:32.899Z,22.19
2023-05-05T14:20:34.487Z,22.14
2023-05-05T14:25:35.974Z,22.17
2023-05-05T14:30:37.415Z,22.26
2023-05-05T14:35:38.874Z,22.42
2023-05-05T14:40:40.622Z,22.22
2023-05-05T14:50:46.268Z,22.25
2023-05-05T14:55:47.762Z,22.41
2023-05-05T15:00:49.214Z,22.42
2023-05-05T15:05:51.102Z,22.18
2023-05-05T15:10:52.529Z,22.33
2023-05-05T15:15:53.985Z,22.31
2023-05-05T15:20:55.425Z,22.03
2023-05-05T15:25:56.932Z,22.13
2023-05-05T15:31:01.820Z,21.90
2023-05-05T15:36:03.397Z,21.71
2023-05-05T15:41:07.021Z,21.53
2023-05-05T15:46:08.431Z,21.67
2023-05-05T15:51:11.843Z,22.00
2023-05-05T15:56:13.266Z,21.44
2023-05-05T16:01:14.707Z,21.44
2023-05-05T16:06:16.213Z,21.21
2023-05-05T16:11:17.716Z,21.31
2023-05-05T16:16:19.195Z,21.03
2023-05-05T16:21:20.656Z,20.85
2023-05-05T16:26:22.100Z,20.95
2023-05-05T16:31:23.524Z,20.70
2023-05-05T16:36:25.014Z,20.84
2023-05-05T16:41:26.861Z,20.81
2023-05-05T16:46:28.408Z,20.48
2023-05-05T16:51:29.989Z,20.43
2023-05-05T16:56:31.424Z,20.51
2023-05-05T17:01:34.720Z,20.34
2023-05-05T17:06:36.441Z,20.17
2023-05-05T17:11:37.936Z,20.02
2023-05-05T17:16:39.431Z,19.88
2023-05-05T17:21:43.131Z,19.84
2023-05-05T17:26:44.601Z,19.74
2023-05-05T17:31:46.788Z,19.64
2023-05-05T17:36:48.240Z,19.50
2023-05-05T17:41:49.707Z,19.40
2023-05-05T17:46:51.256Z,19.45
2023-05-05T17:51:52.708Z,19.31
2023-05-05T17:56:54.197Z,19.13
2023-05-05T18:01:55.700Z,19.01
2023-05-05T18:06:57.469Z,18.90
2023-05-05T18:11:58.903Z,18.84
2023-05-05T18:17:00.313Z,18.68
2023-05-05T18:22:01.740Z,18.59
2023-05-05T18:27:05.953Z,18.42
2023-05-05T18:32:07.465Z,18.31
2023-05-05T18:37:09.017Z,17.99
2023-05-05T18:42:10.554Z,17.98
2023-05-05T18:47:12.216Z,17.83
2023-05-05T18:52:13.706Z,17.85
2023-05-05T18:57:15.131Z,17.35
2023-05-05T19:02:17.825Z,17.20
2023-05-05T19:07:33.925Z,16.94
2023-05-05T19:12:36.770Z,16.85
2023-05-05T19:17:38.281Z,16.90
2023-05-05T19:22:39.824Z,17.08
2023-05-05T19:27:41.392Z,16.63
2023-05-05T19:32:42.834Z,16.57
2023-05-05T19:37:44.257Z,16.34
2023-05-05T19:42:45.668Z,16.46
2023-05-05T19:47:47.127Z,16.39
2023-05-05T19:52:48.559Z,16.25
2023-05-05T19:57:50.007Z,16.19
2023-05-05T20:02:51.663Z,16.23
2023-05-05T20:07:53.179Z,15.83
2023-05-05T20:12:54.618Z,15.64
2023-05-05T20:17:56.097Z,16.08
2023-05-05T20:22:57.546Z,15.45
2023-05-05T20:27:59.296Z,15.47
2023-05-05T20:33:00.810Z,15.39
2023-05-05T20:38:04.664Z,15.17
2023-05-05T20:43:06.115Z,15.15
2023-05-05T20:48:09.904Z,15.10
2023-05-05T20:53:13.837Z,14.86
2023-05-05T20:58:15.269Z,14.86
2023-05-05T21:03:16.873Z,14.79
2023-05-05T21:08:18.365Z,14.72
2023-05-05T21:13:19.836Z,14.83
2023-05-05T21:18:21.364Z,14.47
2023-05-05T21:23:22.805Z,14.35
2023-05-05T21:28:24.292Z,14.29
2023-05-05T21:33:25.744Z,14.23
2023-05-05T21:38:27.257Z,14.19
2023-05-05T21:43:28.811Z,14.11
2023-05-05T21:48:31.321Z,14.06
2023-05-05T21:53:32.803Z,14.00
2023-05-05T21:58:34.390Z,13.94
2023-05-05T22:03:36.027Z,13.92
2023-05-05T22:08:37.506Z,13.87
2023-05-05T22:13:39.255Z,13.87
2023-05-05T22:18:40.710Z,13.85
2023-05-05T22:23:42.157Z,13.86
2023-05-05T22:28:43.589Z,13.80
2023-05-05T22:33:45.020Z,13.59
2023-05-05T22:38:46.528Z,13.54
2023-05-05T22:43:49.190Z,13.50
2023-05-05T22:48:52.320Z,13.49
2023-05-05T22:53:53.729Z,13.39
2023-05-05T22:58:55.766Z,13.39
2023-05-05T23:03:57.336Z,13.52
2023-05-05T23:08:58.769Z,13.21
2023-05-05T23:14:00.281Z,13.26
2023-05-05T23:19:01.781Z,13.23
2023-05-05T23:24:03.356Z,13.36
2023-05-05T23:29:05.684Z,13.38
2023-05-05T23:34:07.115Z,13.30
2023-05-05T23:39:08.772Z,13.33
2023-05-05T23:44:10.337Z,13.42
2023-05-05T23:49:11.756Z,13.21
2023-05-05T23:54:13.173Z,13.42
2023-05-05T23:59:14.650Z,13.29
